aviador You're here:

GCRR Decoded Metar

LANZAROTE in SPAIN
Report Time2018-06-25 11:30:00
UTC Time2018-06-25 12:03:44
Flight Rules vfr VFR
Wind090° at 14 kt
W.Decomp.*RWY 03: 5.9 kt HW 12.7 kt RCW
W.Rank090° ranks 12
Current wind is above 090° avg. (9.0)
Visibility9999 m
Phenomena:N/A
Clouds:Few 025 Hf
Expected CloudBase > 1,200 ft AGL from Temp-Dew spread
CeilingNone
Temp21°C (ISA +6)
Dew Point18°C (83% RH)
AAT18.8°C
QNH1019 hPa
Density Alt935 ft
Elevation131 ft
Report Wrong Elevation
Raw Report
GCRR 251130Z 09014KT 9999 FEW025 21/18 Q1019=

Extra information for GCRR:More info

Metar Taf Metar & Taf Last 4 Metars F.Rules Stats Wind Profile Meteogram Temp Stats Airport Information Weather charts Add Link Nearby VenuesMetar ALERT Operation Metar Decoded Social comments